createdAt,value
2018-01-18T00:00:19.742Z,3.67
2018-01-18T00:02:48.073Z,4.53
2018-01-18T00:05:16.386Z,5.37
2018-01-18T00:07:44.722Z,4.10
2018-01-18T00:10:13.033Z,4.57
2018-01-18T00:12:41.373Z,4.72
2018-01-18T00:15:09.709Z,3.95
2018-01-18T00:17:38.017Z,3.85
2018-01-18T00:20:06.355Z,4.28
2018-01-18T00:22:34.661Z,4.00
2018-01-18T00:25:02.997Z,5.18
2018-01-18T00:27:31.314Z,4.30
2018-01-18T00:29:59.647Z,4.60
2018-01-18T00:32:27.962Z,3.92
2018-01-18T00:34:56.294Z,4.10
2018-01-18T00:37:24.612Z,4.05
2018-01-18T00:39:52.946Z,4.00
2018-01-18T00:42:21.261Z,4.78
2018-01-18T00:44:49.598Z,3.47
2018-01-18T00:47:17.905Z,5.15
2018-01-18T00:49:46.242Z,4.55
2018-01-18T00:52:14.553Z,4.82
2018-01-18T00:54:42.889Z,5.00
2018-01-18T00:57:11.203Z,5.40
2018-01-18T00:59:39.529Z,6.53
2018-01-18T01:02:07.838Z,6.22
2018-01-18T01:04:36.169Z,5.93
2018-01-18T01:07:04.482Z,7.00
2018-01-18T01:09:32.819Z,6.80
2018-01-18T01:12:01.126Z,7.75
2018-01-18T01:14:29.462Z,7.78
2018-01-18T01:16:57.780Z,7.25
2018-01-18T01:19:26.114Z,8.18
2018-01-18T01:21:54.435Z,7.62
2018-01-18T01:24:22.771Z,9.45
2018-01-18T01:26:51.090Z,8.45
2018-01-18T01:29:19.422Z,6.93
2018-01-18T01:31:47.737Z,7.00
2018-01-18T01:34:16.066Z,6.82
2018-01-18T01:36:44.381Z,8.32
2018-01-18T01:39:12.721Z,5.90
2018-01-18T01:41:41.038Z,6.10
2018-01-18T01:44:09.368Z,6.78
2018-01-18T01:46:37.681Z,6.75
2018-01-18T01:49:06.017Z,5.30
2018-01-18T01:51:34.330Z,6.15
2018-01-18T01:54:02.667Z,6.37
2018-01-18T01:56:30.979Z,5.90
2018-01-18T01:58:59.305Z,5.30
2018-01-18T02:01:27.622Z,5.15
2018-01-18T02:03:55.949Z,6.25
2018-01-18T02:06:24.265Z,5.93
2018-01-18T02:08:52.634Z,4.80
2018-01-18T02:11:20.905Z,5.12
2018-01-18T02:13:49.250Z,4.62
2018-01-18T02:16:17.561Z,5.22
2018-01-18T02:18:45.864Z,5.95
2018-01-18T02:21:14.207Z,5.28
2018-01-18T02:23:42.513Z,4.95
2018-01-18T02:26:10.849Z,4.97
2018-01-18T02:28:39.157Z,4.75
2018-01-18T02:31:07.493Z,4.43
2018-01-18T02:33:35.813Z,5.78
2018-01-18T02:36:04.146Z,5.22
2018-01-18T02:38:32.457Z,4.20
2018-01-18T02:41:00.798Z,5.35
2018-01-18T02:43:29.119Z,3.75
2018-01-18T02:45:57.457Z,4.60
2018-01-18T02:48:25.778Z,3.83
2018-01-18T02:50:54.101Z,4.30
2018-01-18T02:53:22.413Z,4.43
2018-01-18T02:55:50.782Z,3.80
2018-01-18T02:58:19.077Z,5.62
2018-01-18T03:00:47.415Z,5.25
2018-01-18T03:03:15.729Z,4.20
2018-01-18T03:05:44.425Z,4.82
2018-01-18T03:08:12.738Z,3.60
2018-01-18T03:10:41.064Z,5.57
2018-01-18T03:13:09.403Z,3.95
2018-01-18T03:15:37.718Z,3.70
2018-01-18T03:18:06.021Z,3.92
2018-01-18T03:20:34.358Z,4.37
2018-01-18T03:23:02.674Z,3.08
2018-01-18T03:25:31.001Z,2.92
2018-01-18T03:27:59.313Z,2.65
2018-01-18T03:30:27.645Z,3.70
2018-01-18T03:32:55.961Z,2.67
2018-01-18T03:35:24.299Z,3.75
2018-01-18T03:37:52.600Z,3.75
2018-01-18T03:40:20.981Z,3.60
2018-01-18T03:42:49.240Z,3.22
2018-01-18T03:45:17.574Z,3.28
2018-01-18T03:47:45.890Z,4.05
2018-01-18T03:50:14.226Z,2.20
2018-01-18T03:52:42.534Z,2.12
2018-01-18T03:55:10.862Z,2.15
2018-01-18T03:57:39.173Z,3.30
2018-01-18T04:00:07.505Z,3.75
2018-01-18T04:02:35.822Z,3.00
2018-01-18T04:05:04.149Z,3.47
2018-01-18T04:07:32.465Z,3.00
2018-01-18T04:10:00.796Z,2.42
2018-01-18T04:12:29.117Z,2.83
2018-01-18T04:14:57.462Z,2.72
2018-01-18T04:17:25.780Z,2.53
2018-01-18T04:19:54.094Z,3.83
2018-01-18T04:22:22.430Z,4.05
2018-01-18T04:24:50.753Z,3.47
2018-01-18T04:27:19.085Z,3.65
2018-01-18T04:29:47.393Z,3.28
2018-01-18T04:32:15.724Z,3.60
2018-01-18T04:34:44.037Z,4.78
2018-01-18T04:37:12.371Z,3.65
2018-01-18T04:39:40.682Z,3.70
2018-01-18T04:42:09.009Z,3.28
2018-01-18T04:44:37.322Z,4.22
2018-01-18T04:47:05.652Z,3.83
2018-01-18T04:49:33.973Z,3.62
2018-01-18T04:52:02.301Z,4.03
2018-01-18T04:54:30.618Z,2.92
2018-01-18T04:56:58.949Z,3.50
2018-01-18T04:59:27.257Z,3.47
2018-01-18T05:01:55.584Z,3.47
2018-01-18T05:04:23.901Z,4.78
2018-01-18T05:06:52.238Z,2.62
2018-01-18T05:09:20.562Z,3.75
2018-01-18T05:11:48.902Z,3.75
2018-01-18T05:14:17.218Z,3.28
2018-01-18T05:16:45.545Z,2.08
2018-01-18T05:19:13.876Z,2.80
2018-01-18T05:21:42.209Z,3.20
2018-01-18T05:24:10.521Z,3.67
2018-01-18T05:26:38.858Z,2.87
2018-01-18T05:29:07.161Z,2.60
2018-01-18T05:31:35.530Z,2.50
2018-01-18T05:34:04.006Z,2.60
2018-01-18T05:36:32.344Z,3.58
2018-01-18T05:39:00.662Z,4.07
2018-01-18T05:41:29.001Z,3.57
2018-01-18T05:43:57.821Z,3.03
2018-01-18T05:46:26.233Z,2.10
2018-01-18T05:48:54.541Z,2.37
2018-01-18T05:51:22.886Z,2.77
2018-01-18T05:53:51.207Z,2.87
2018-01-18T05:56:19.534Z,3.10
2018-01-18T05:58:47.850Z,2.27
2018-01-18T06:01:16.189Z,2.40
2018-01-18T06:03:44.505Z,2.60
2018-01-18T06:06:12.850Z,3.37
2018-01-18T06:08:41.169Z,3.12
2018-01-18T06:11:09.525Z,4.23
2018-01-18T06:13:38.050Z,1.90
2018-01-18T06:16:06.578Z,2.30
2018-01-18T06:18:34.885Z,2.53
2018-01-18T06:21:03.225Z,1.60
2018-01-18T06:23:31.641Z,1.70
2018-01-18T06:25:59.951Z,2.70
2018-01-18T06:28:28.292Z,2.20
2018-01-18T06:30:56.607Z,2.03
2018-01-18T06:33:24.953Z,2.27
2018-01-18T06:35:53.278Z,3.30
2018-01-18T06:38:21.615Z,1.60
2018-01-18T06:40:49.934Z,1.60
2018-01-18T06:43:18.276Z,1.73
2018-01-18T06:45:46.589Z,0.98
2018-01-18T06:48:14.936Z,1.05
2018-01-18T06:50:43.242Z,1.00
2018-01-18T06:53:11.578Z,0.90
2018-01-18T06:55:39.894Z,0.77
2018-01-18T06:58:08.269Z,0.60
2018-01-18T07:00:36.577Z,0.90
2018-01-18T07:03:04.909Z,0.90
2018-01-18T07:05:33.222Z,0.67
2018-01-18T07:08:01.563Z,0.47
2018-01-18T07:10:29.882Z,0.57
2018-01-18T07:12:58.215Z,0.57
2018-01-18T07:15:26.531Z,0.43
2018-01-18T07:17:54.857Z,0.50
2018-01-18T07:20:23.175Z,0.70
2018-01-18T07:22:51.505Z,0.60
2018-01-18T07:25:19.827Z,0.50
2018-01-18T07:27:48.162Z,0.50
2018-01-18T07:30:16.482Z,0.50
2018-01-18T07:32:44.810Z,0.60
2018-01-18T07:35:13.122Z,0.50
2018-01-18T07:37:41.463Z,0.43
2018-01-18T07:40:09.818Z,0.50
2018-01-18T07:42:38.106Z,0.50
2018-01-18T07:45:06.418Z,0.60
2018-01-18T07:47:34.750Z,0.60
2018-01-18T07:50:03.064Z,0.60
2018-01-18T07:52:31.393Z,0.60
2018-01-18T07:54:59.702Z,0.80
2018-01-18T07:57:28.046Z,0.70
2018-01-18T07:59:56.350Z,0.60
2018-01-18T08:02:24.677Z,0.90
2018-01-18T08:04:52.989Z,0.70
2018-01-18T08:07:21.313Z,0.60
2018-01-18T08:09:49.617Z,0.80
2018-01-18T08:12:17.955Z,0.70
2018-01-18T08:14:46.266Z,0.70
2018-01-18T08:17:14.615Z,0.70
2018-01-18T08:19:42.926Z,0.70
2018-01-18T08:22:11.238Z,0.95
2018-01-18T08:24:39.569Z,0.75
2018-01-18T08:27:07.883Z,0.65
2018-01-18T08:29:36.205Z,0.82
2018-01-18T08:32:04.569Z,0.80
2018-01-18T08:34:32.838Z,0.62
2018-01-18T08:37:01.144Z,0.85
2018-01-18T08:39:29.635Z,0.85
2018-01-18T08:41:57.927Z,0.80
2018-01-18T08:44:26.263Z,0.60
2018-01-18T08:46:54.565Z,0.80
2018-01-18T08:49:22.897Z,0.70
2018-01-18T08:51:51.205Z,0.90
2018-01-18T08:54:19.529Z,0.90
2018-01-18T08:56:47.846Z,0.85
2018-01-18T08:59:16.173Z,0.68
2018-01-18T09:01:44.482Z,0.90
2018-01-18T09:04:12.813Z,1.02
2018-01-18T09:06:41.127Z,0.50
2018-01-18T09:09:09.465Z,0.90
2018-01-18T09:11:37.771Z,0.62
2018-01-18T09:14:06.102Z,0.60
2018-01-18T09:16:34.411Z,0.70
2018-01-18T09:19:02.746Z,0.60
2018-01-18T09:21:31.062Z,0.88
2018-01-18T09:23:59.395Z,0.70
2018-01-18T09:26:27.698Z,0.75
2018-01-18T09:28:56.027Z,0.70
2018-01-18T09:31:24.329Z,1.20
2018-01-18T09:33:52.662Z,1.20
2018-01-18T09:36:21.878Z,0.95
2018-01-18T09:38:50.210Z,1.50
2018-01-18T09:41:18.519Z,0.93
2018-01-18T09:43:46.847Z,1.20
2018-01-18T09:46:15.153Z,1.45
2018-01-18T09:48:43.484Z,1.10
2018-01-18T09:51:11.801Z,1.70
2018-01-18T09:53:40.139Z,1.20
2018-01-18T09:56:08.453Z,1.20
2018-01-18T09:58:36.790Z,1.37
2018-01-18T10:01:05.112Z,2.17
2018-01-18T10:03:33.453Z,2.20
2018-01-18T10:06:01.765Z,2.03
2018-01-18T10:08:30.098Z,1.45
2018-01-18T10:10:58.418Z,1.77
2018-01-18T10:13:26.765Z,1.08
2018-01-18T10:15:55.090Z,2.62
2018-01-18T10:18:23.435Z,1.42
2018-01-18T10:20:51.776Z,1.52
2018-01-18T10:23:20.087Z,1.25
2018-01-18T10:25:48.436Z,1.35
2018-01-18T10:28:16.749Z,1.50
2018-01-18T10:30:45.091Z,1.10
2018-01-18T10:33:13.403Z,1.92
2018-01-18T10:35:41.770Z,1.15
2018-01-18T10:38:10.054Z,2.83
2018-01-18T10:40:38.399Z,1.50
2018-01-18T10:43:06.738Z,1.52
2018-01-18T10:45:35.079Z,2.25
2018-01-18T10:48:04.348Z,1.60
2018-01-18T10:50:32.685Z,2.23
2018-01-18T10:53:00.998Z,2.30
2018-01-18T10:55:29.590Z,2.08
2018-01-18T10:57:57.894Z,1.50
2018-01-18T11:00:26.236Z,2.00
2018-01-18T11:02:54.545Z,1.50
2018-01-18T11:05:22.878Z,1.23
2018-01-18T11:07:51.190Z,1.43
2018-01-18T11:10:19.518Z,1.70
2018-01-18T11:12:48.181Z,1.27
2018-01-18T11:15:16.523Z,1.57
2018-01-18T11:17:44.862Z,1.83
2018-01-18T11:20:13.305Z,1.53
2018-01-18T11:22:41.601Z,1.70
2018-01-18T11:25:09.938Z,2.13
2018-01-18T11:27:38.254Z,1.00
2018-01-18T11:30:06.590Z,1.93
2018-01-18T11:32:34.897Z,1.50
2018-01-18T11:35:04.181Z,1.08
2018-01-18T11:37:32.493Z,1.03
2018-01-18T11:40:00.869Z,1.70
2018-01-18T11:42:29.142Z,0.80
2018-01-18T11:44:57.465Z,1.30
2018-01-18T11:47:25.777Z,1.20
2018-01-18T11:49:54.109Z,1.37
2018-01-18T11:52:22.444Z,1.57
2018-01-18T11:54:50.757Z,1.33
2018-01-18T11:57:19.106Z,0.90
2018-01-18T11:59:47.438Z,1.70
2018-01-18T12:02:15.770Z,0.80
2018-01-18T12:04:44.109Z,1.10
2018-01-18T12:07:12.410Z,1.25
2018-01-18T12:09:40.742Z,1.10
2018-01-18T12:12:09.044Z,2.40
2018-01-18T12:14:37.373Z,1.33
2018-01-18T12:17:05.689Z,0.80
2018-01-18T12:19:34.013Z,1.25
2018-01-18T12:22:02.391Z,0.65
2018-01-18T12:24:30.737Z,0.80
2018-01-18T12:26:59.069Z,0.70
2018-01-18T12:29:27.382Z,0.60
2018-01-18T12:31:55.713Z,0.47
2018-01-18T12:34:24.040Z,0.70
2018-01-18T12:36:52.363Z,0.50
2018-01-18T12:39:20.666Z,0.50
2018-01-18T12:41:49.030Z,0.40
2018-01-18T12:44:17.334Z,0.40
2018-01-18T12:46:45.666Z,0.43
2018-01-18T12:49:13.973Z,0.50
2018-01-18T12:51:42.318Z,0.40
2018-01-18T12:54:10.625Z,0.45
2018-01-18T12:56:38.953Z,0.60
2018-01-18T12:59:07.267Z,0.50
2018-01-18T13:01:35.597Z,0.80
2018-01-18T13:04:03.906Z,0.60
2018-01-18T13:06:32.237Z,0.50
2018-01-18T13:09:00.551Z,0.73
2018-01-18T13:11:28.881Z,0.80
2018-01-18T13:13:57.224Z,0.40
2018-01-18T13:16:25.533Z,0.60
2018-01-18T13:18:53.846Z,0.60
2018-01-18T13:21:22.185Z,0.93
2018-01-18T13:23:50.502Z,1.10
2018-01-18T13:26:18.830Z,0.60
2018-01-18T13:28:47.138Z,0.70
2018-01-18T13:31:15.476Z,0.70
2018-01-18T13:33:43.789Z,0.50
2018-01-18T13:36:12.122Z,0.60
2018-01-18T13:38:40.435Z,0.60
2018-01-18T13:41:08.773Z,0.90
2018-01-18T13:43:37.086Z,0.77
2018-01-18T13:46:05.413Z,0.90
2018-01-18T13:48:33.723Z,1.10
2018-01-18T13:51:02.062Z,0.77
2018-01-18T13:53:30.370Z,1.30
2018-01-18T13:55:58.705Z,0.70
2018-01-18T13:58:27.013Z,0.80
2018-01-18T14:00:55.361Z,0.87
2018-01-18T14:03:23.673Z,0.90
2018-01-18T14:05:52.010Z,0.70
2018-01-18T14:08:20.334Z,0.70
2018-01-18T14:10:48.666Z,0.60
2018-01-18T14:13:16.989Z,0.70
2018-01-18T14:15:45.338Z,0.63
2018-01-18T14:18:13.654Z,0.73
2018-01-18T14:20:41.981Z,1.37
2018-01-18T14:23:10.315Z,0.53
2018-01-18T14:25:39.569Z,0.77
2018-01-18T14:28:07.893Z,0.83
2018-01-18T14:30:36.209Z,0.73
2018-01-18T14:33:04.641Z,1.10
2018-01-18T14:35:33.949Z,0.80
2018-01-18T14:38:02.287Z,0.60
2018-01-18T14:40:30.626Z,0.70
2018-01-18T14:42:58.962Z,0.70
2018-01-18T14:45:27.268Z,0.83
2018-01-18T14:47:55.629Z,1.00
2018-01-18T14:50:23.927Z,0.70
2018-01-18T14:52:52.262Z,0.80
2018-01-18T14:55:20.573Z,0.50
2018-01-18T14:57:48.918Z,0.70
2018-01-18T15:00:17.233Z,0.60
2018-01-18T15:02:45.570Z,0.87
2018-01-18T15:05:13.987Z,0.87
2018-01-18T15:07:42.316Z,1.20
2018-01-18T15:10:10.629Z,1.12
2018-01-18T15:12:38.970Z,0.80
2018-01-18T15:15:07.266Z,0.90
2018-01-18T15:17:35.597Z,0.70
2018-01-18T15:20:04.881Z,0.85
2018-01-18T15:22:33.208Z,1.10
2018-01-18T15:25:01.528Z,1.00
2018-01-18T15:27:29.857Z,0.90
2018-01-18T15:29:58.166Z,1.00
2018-01-18T15:32:26.544Z,0.80
2018-01-18T15:34:54.855Z,0.70
2018-01-18T15:37:23.186Z,1.83
2018-01-18T15:39:51.854Z,0.95
2018-01-18T15:42:20.195Z,0.70
2018-01-18T15:44:48.502Z,0.80
2018-01-18T15:47:16.838Z,0.98
2018-01-18T15:49:45.158Z,0.70
2018-01-18T15:52:13.486Z,0.70
2018-01-18T15:54:41.830Z,0.68
2018-01-18T15:57:10.366Z,0.77
2018-01-18T15:59:38.694Z,0.80
2018-01-18T16:02:07.028Z,1.30
2018-01-18T16:04:35.353Z,1.10
2018-01-18T16:07:03.653Z,1.67
2018-01-18T16:09:31.986Z,0.80
2018-01-18T16:12:00.323Z,0.82
2018-01-18T16:14:28.650Z,1.30
2018-01-18T16:16:57.909Z,0.70
2018-01-18T16:19:26.246Z,0.83
2018-01-18T16:21:55.402Z,0.80
2018-01-18T16:24:23.734Z,1.07
2018-01-18T16:26:52.049Z,0.90
2018-01-18T16:29:20.382Z,0.87
2018-01-18T16:31:48.685Z,1.10
2018-01-18T16:34:17.050Z,0.98
2018-01-18T16:36:45.417Z,1.77
2018-01-18T16:39:13.777Z,2.20
2018-01-18T16:41:42.129Z,1.13
2018-01-18T16:44:10.442Z,1.33
2018-01-18T16:46:38.791Z,1.12
2018-01-18T16:49:07.113Z,1.70
2018-01-18T16:51:35.421Z,0.80
2018-01-18T16:54:03.749Z,0.90
2018-01-18T16:56:32.279Z,0.82
2018-01-18T16:59:00.585Z,0.80
2018-01-18T17:01:28.920Z,0.83
2018-01-18T17:03:57.232Z,0.80
2018-01-18T17:06:25.561Z,0.93
2018-01-18T17:08:53.869Z,0.97
2018-01-18T17:11:22.201Z,0.80
2018-01-18T17:13:50.501Z,1.20
2018-01-18T17:16:19.080Z,1.00
2018-01-18T17:18:47.390Z,1.00
2018-01-18T17:21:15.725Z,1.20
2018-01-18T17:23:44.033Z,0.65
2018-01-18T17:26:12.366Z,1.10
2018-01-18T17:28:40.678Z,1.10
2018-01-18T17:31:09.005Z,1.20
2018-01-18T17:33:37.317Z,1.53
2018-01-18T17:36:05.650Z,1.40
2018-01-18T17:38:33.953Z,0.90
2018-01-18T17:41:02.289Z,1.70
2018-01-18T17:43:30.598Z,1.25
2018-01-18T17:45:58.924Z,1.30
2018-01-18T17:48:27.242Z,1.70
2018-01-18T17:50:55.577Z,0.90
2018-01-18T17:53:23.885Z,1.30
2018-01-18T17:55:52.213Z,1.40
2018-01-18T17:58:20.527Z,0.80
2018-01-18T18:00:48.853Z,0.73
2018-01-18T18:03:17.181Z,1.47
2018-01-18T18:05:45.497Z,0.80
2018-01-18T18:08:13.830Z,2.00
2018-01-18T18:10:42.206Z,2.47
2018-01-18T18:13:10.542Z,2.17
2018-01-18T18:15:38.980Z,2.50
2018-01-18T18:18:07.330Z,1.97
2018-01-18T18:20:35.658Z,2.10
2018-01-18T18:23:04.128Z,2.20
2018-01-18T18:25:32.516Z,2.20
2018-01-18T18:28:01.638Z,2.00
2018-01-18T18:30:29.977Z,2.67
2018-01-18T18:32:58.380Z,1.70
2018-01-18T18:35:26.721Z,2.13
2018-01-18T18:37:55.064Z,2.27
2018-01-18T18:40:23.374Z,3.75
2018-01-18T18:42:51.741Z,3.60
2018-01-18T18:45:20.059Z,3.35
2018-01-18T18:47:48.364Z,1.50
2018-01-18T18:50:16.701Z,2.28
2018-01-18T18:52:45.013Z,2.08
2018-01-18T18:55:13.353Z,3.33
2018-01-18T18:57:41.665Z,1.93
2018-01-18T19:00:10.002Z,4.17
2018-01-18T19:02:38.318Z,4.20
2018-01-18T19:05:07.429Z,2.22
2018-01-18T19:07:35.745Z,2.10
2018-01-18T19:10:04.086Z,1.80
2018-01-18T19:12:32.389Z,1.37
2018-01-18T19:15:00.914Z,1.80
2018-01-18T19:17:29.275Z,1.60
2018-01-18T19:19:57.630Z,1.53
2018-01-18T19:22:25.917Z,2.00
2018-01-18T19:24:54.254Z,2.12
2018-01-18T19:27:22.569Z,1.30
2018-01-18T19:29:50.910Z,4.43
2018-01-18T19:32:19.419Z,2.33
2018-01-18T19:34:47.878Z,1.80
2018-01-18T19:37:16.185Z,1.13
2018-01-18T19:39:44.525Z,1.70
2018-01-18T19:42:12.846Z,2.00
2018-01-18T19:44:41.157Z,1.37
2018-01-18T19:47:09.486Z,1.80
2018-01-18T19:49:37.789Z,1.47
2018-01-18T19:52:06.117Z,1.15
2018-01-18T19:54:34.426Z,1.40
2018-01-18T19:57:02.762Z,2.00
2018-01-18T19:59:31.073Z,1.70
2018-01-18T20:01:59.401Z,1.90
2018-01-18T20:04:30.793Z,1.13
2018-01-18T20:06:59.117Z,1.37
2018-01-18T20:09:27.436Z,1.55
2018-01-18T20:11:55.765Z,1.60
2018-01-18T20:14:24.570Z,1.77
2018-01-18T20:16:52.909Z,1.60
2018-01-18T20:19:21.273Z,1.33
2018-01-18T20:21:49.610Z,1.23
2018-01-18T20:24:17.924Z,1.80
2018-01-18T20:26:46.262Z,2.08
2018-01-18T20:29:14.582Z,2.30
2018-01-18T20:31:42.922Z,2.20
2018-01-18T20:34:12.105Z,1.60
2018-01-18T20:36:40.410Z,1.30
2018-01-18T20:39:08.737Z,2.07
2018-01-18T20:41:37.063Z,1.58
2018-01-18T20:44:05.453Z,1.52
2018-01-18T20:46:33.757Z,1.60
2018-01-18T20:49:02.093Z,2.10
2018-01-18T20:51:30.405Z,1.77
2018-01-18T20:53:59.753Z,1.74
2018-01-18T20:56:28.061Z,1.13
2018-01-18T20:58:56.404Z,1.70
2018-01-18T21:01:24.716Z,1.90
2018-01-18T21:03:53.054Z,1.70
2018-01-18T21:06:21.361Z,2.60
2018-01-18T21:08:49.691Z,2.37
2018-01-18T21:11:18.012Z,1.87
2018-01-18T21:13:46.469Z,1.52
2018-01-18T21:16:14.785Z,2.23
2018-01-18T21:18:43.123Z,2.80
2018-01-18T21:21:11.429Z,1.73
2018-01-18T21:23:39.757Z,3.17
2018-01-18T21:26:08.065Z,1.70
2018-01-18T21:28:36.402Z,2.20
2018-01-18T21:31:04.719Z,1.90
2018-01-18T21:33:33.049Z,2.30
2018-01-18T21:36:01.385Z,2.20
2018-01-18T21:38:29.714Z,2.70
2018-01-18T21:40:58.030Z,1.80
2018-01-18T21:43:26.361Z,2.03
2018-01-18T21:45:54.685Z,2.30
2018-01-18T21:48:23.005Z,1.63
2018-01-18T21:50:51.318Z,1.87
2018-01-18T21:53:19.645Z,2.25
2018-01-18T21:55:47.957Z,3.10
2018-01-18T21:58:16.285Z,1.67
2018-01-18T22:00:44.622Z,2.00
2018-01-18T22:03:12.953Z,2.33
2018-01-18T22:05:41.269Z,2.75
2018-01-18T22:08:09.614Z,1.77
2018-01-18T22:10:37.926Z,2.83
2018-01-18T22:13:06.237Z,2.83
2018-01-18T22:15:34.575Z,2.13
2018-01-18T22:18:02.888Z,1.90
2018-01-18T22:20:31.217Z,2.87
2018-01-18T22:22:59.546Z,3.10
2018-01-18T22:25:27.873Z,2.65
2018-01-18T22:27:56.188Z,2.00
2018-01-18T22:30:24.522Z,2.35
2018-01-18T22:32:52.834Z,1.87
2018-01-18T22:35:21.187Z,2.90
2018-01-18T22:37:49.497Z,2.30
2018-01-18T22:40:17.936Z,3.63
2018-01-18T22:42:46.225Z,2.47
2018-01-18T22:45:19.878Z,3.10
2018-01-18T22:47:48.202Z,3.87
2018-01-18T22:50:16.537Z,3.10
2018-01-18T22:52:44.850Z,3.13
2018-01-18T22:55:13.174Z,3.00
2018-01-18T22:57:41.486Z,3.58
2018-01-18T23:00:09.812Z,3.65
2018-01-18T23:02:38.113Z,4.20
2018-01-18T23:05:06.445Z,4.10
2018-01-18T23:07:34.752Z,4.93
2018-01-18T23:10:03.081Z,4.53
2018-01-18T23:12:31.394Z,5.75
2018-01-18T23:14:59.725Z,6.05
2018-01-18T23:17:28.043Z,5.60
2018-01-18T23:19:56.371Z,6.30
2018-01-18T23:22:24.690Z,5.68
2018-01-18T23:24:53.024Z,6.70
2018-01-18T23:27:21.325Z,6.68
2018-01-18T23:29:49.653Z,6.20
2018-01-18T23:32:17.961Z,6.20
2018-01-18T23:34:46.301Z,7.22
2018-01-18T23:37:14.605Z,6.80
2018-01-18T23:39:42.941Z,6.45
2018-01-18T23:42:11.248Z,8.35
2018-01-18T23:44:39.581Z,6.82
2018-01-18T23:47:07.893Z,5.60
2018-01-18T23:49:36.225Z,8.10
2018-01-18T23:52:04.538Z,5.80
2018-01-18T23:54:32.865Z,6.50
2018-01-18T23:57:01.178Z,6.47
2018-01-18T23:59:29.505Z,7.62
